createdAt,value
2022-09-24T00:00:10.509Z,98.24
2022-09-24T00:01:15.236Z,98.14
2022-09-24T00:02:10.623Z,97.85
2022-09-24T00:03:10.605Z,97.66
2022-09-24T00:04:10.644Z,98.09
2022-09-24T00:05:10.626Z,97.95
2022-09-24T00:06:10.652Z,97.80
2022-09-24T00:07:10.677Z,98.33
2022-09-24T00:08:10.697Z,98.18
2022-09-24T00:09:10.729Z,98.38
2022-09-24T00:10:10.750Z,98.47
2022-09-24T00:11:10.775Z,99.04
2022-09-24T00:12:10.800Z,98.75
2022-09-24T00:13:10.825Z,98.75
2022-09-24T00:14:10.901Z,98.66
2022-09-24T00:15:10.872Z,98.66
2022-09-24T00:16:10.957Z,98.47
2022-09-24T00:17:10.923Z,99.33
2022-09-24T00:18:10.948Z,98.85
2022-09-24T00:19:10.970Z,99.14
2022-09-24T00:20:10.996Z,98.85
2022-09-24T00:21:11.020Z,99.24
2022-09-24T00:22:11.043Z,99.24
2022-09-24T00:23:11.072Z,99.14
2022-09-24T00:24:11.178Z,99.14
2022-09-24T00:25:11.121Z,99.33
2022-09-24T00:26:11.143Z,99.24
2022-09-24T00:27:11.168Z,99.33
2022-09-24T00:28:11.190Z,99.24
2022-09-24T00:29:18.385Z,99.24
2022-09-24T00:31:04.751Z,99.04
2022-09-24T00:32:04.370Z,99.43
2022-09-24T00:34:08.429Z,98.95
2022-09-24T00:35:08.400Z,99.14
2022-09-24T00:37:12.896Z,99.43
2022-09-24T00:38:12.426Z,99.33
2022-09-24T00:40:16.493Z,99.24
2022-09-24T00:41:16.451Z,99.33
2022-09-24T00:43:20.945Z,99.33
2022-09-24T00:44:20.485Z,99.14
2022-09-24T00:46:24.530Z,99.43
2022-09-24T00:47:24.522Z,99.33
2022-09-24T00:49:29.008Z,99.24
2022-09-24T00:50:28.540Z,99.04
2022-09-24T00:52:32.558Z,99.43
2022-09-24T00:53:32.582Z,99.14
2022-09-24T00:55:26.051Z,99.62
2022-09-24T00:56:25.730Z,99.99
2022-09-24T00:58:18.865Z,99.99
2022-09-24T00:59:18.883Z,99.99
2022-09-24T01:01:12.423Z,99.99
2022-09-24T01:02:11.870Z,99.81
2022-09-24T01:04:15.848Z,99.62
2022-09-24T01:05:15.868Z,99.71
2022-09-24T01:07:20.357Z,99.71
2022-09-24T01:08:19.899Z,99.99
2022-09-24T01:10:23.911Z,99.99
2022-09-24T01:11:23.930Z,99.99
2022-09-24T01:13:28.417Z,99.99
2022-09-24T01:14:27.959Z,99.99
2022-09-24T01:16:32.012Z,99.99
2022-09-24T01:17:31.986Z,99.99
2022-09-24T01:18:32.013Z,99.99
2022-09-24T01:19:32.037Z,99.99
2022-09-24T01:20:32.061Z,99.99
2022-09-24T01:21:32.086Z,99.99
2022-09-24T01:22:32.110Z,99.99
2022-09-24T01:23:32.136Z,99.99
2022-09-24T01:24:32.159Z,99.99
2022-09-24T01:25:32.184Z,99.99
2022-09-24T01:26:32.207Z,99.99
2022-09-24T01:27:32.235Z,99.99
2022-09-24T01:28:32.258Z,99.99
2022-09-24T01:29:32.286Z,99.99
2022-09-24T01:30:32.314Z,99.99
2022-09-24T01:31:32.366Z,99.99
2022-09-24T01:32:32.682Z,99.99
2022-09-24T01:33:32.378Z,99.99
2022-09-24T01:34:32.406Z,99.99
2022-09-24T01:35:32.432Z,99.99
2022-09-24T01:36:32.463Z,99.99
2022-09-24T01:37:32.481Z,99.99
2022-09-24T01:38:32.501Z,99.99
2022-09-24T01:39:32.528Z,99.99
2022-09-24T01:40:32.607Z,99.99
2022-09-24T01:41:32.577Z,99.99
2022-09-24T01:42:32.601Z,99.99
2022-09-24T01:43:32.625Z,99.99
2022-09-24T01:44:32.653Z,99.99
2022-09-24T01:45:32.676Z,99.99
2022-09-24T01:46:32.763Z,99.99
2022-09-24T01:47:34.867Z,99.99
2022-09-24T01:48:32.747Z,99.99
2022-09-24T01:49:32.771Z,99.99
2022-09-24T01:50:32.793Z,99.99
2022-09-24T01:51:32.820Z,99.99
2022-09-24T01:52:32.846Z,99.99
2022-09-24T01:53:32.868Z,99.99
2022-09-24T01:54:32.893Z,99.99
2022-09-24T01:55:32.919Z,99.99
2022-09-24T01:56:32.941Z,99.99
2022-09-24T01:57:32.967Z,99.99
2022-09-24T01:58:32.992Z,99.99
2022-09-24T01:59:33.017Z,99.99
2022-09-24T02:00:33.122Z,99.99
2022-09-24T02:01:33.136Z,99.99
2022-09-24T02:02:33.152Z,99.99
2022-09-24T02:03:33.112Z,99.99
2022-09-24T02:04:33.135Z,99.99
2022-09-24T02:05:33.165Z,99.99
2022-09-24T02:06:33.183Z,99.99
2022-09-24T02:07:33.207Z,99.99
2022-09-24T02:08:33.253Z,99.99
2022-09-24T02:09:33.260Z,99.99
2022-09-24T02:10:33.282Z,99.99
2022-09-24T02:11:33.305Z,99.99
2022-09-24T02:12:33.327Z,99.99
2022-09-24T02:13:33.351Z,99.99
2022-09-24T02:14:33.378Z,99.99
2022-09-24T02:15:33.404Z,99.99
2022-09-24T02:16:33.475Z,99.99
2022-09-24T02:17:33.557Z,99.99
2022-09-24T02:18:33.472Z,99.99
2022-09-24T02:19:33.498Z,99.99
2022-09-24T02:20:33.521Z,99.99
2022-09-24T02:21:33.549Z,99.99
2022-09-24T02:22:33.572Z,99.99
2022-09-24T02:23:33.608Z,99.99
2022-09-24T02:24:33.623Z,99.99
2022-09-24T02:25:33.644Z,99.99
2022-09-24T02:26:33.668Z,99.99
2022-09-24T02:27:33.694Z,99.99
2022-09-24T02:28:33.718Z,99.99
2022-09-24T02:29:33.742Z,99.99
2022-09-24T02:30:33.768Z,99.99
2022-09-24T02:31:33.857Z,99.99
2022-09-24T02:32:33.817Z,99.99
2022-09-24T02:33:33.838Z,99.99
2022-09-24T02:34:33.867Z,99.99
2022-09-24T02:35:33.889Z,99.99
2022-09-24T02:36:33.914Z,99.99
2022-09-24T02:37:33.943Z,99.99
2022-09-24T02:38:33.963Z,99.99
2022-09-24T02:39:33.987Z,99.99
2022-09-24T02:40:34.078Z,99.99
2022-09-24T02:41:34.033Z,99.99
2022-09-24T02:42:34.061Z,99.99
2022-09-24T02:43:34.085Z,99.99
2022-09-24T02:44:34.111Z,99.99
2022-09-24T02:45:34.135Z,99.99
2022-09-24T02:46:34.232Z,99.99
2022-09-24T02:47:34.182Z,99.99
2022-09-24T02:48:34.207Z,99.99
2022-09-24T02:49:34.230Z,99.99
2022-09-24T02:50:34.258Z,99.99
2022-09-24T02:51:34.283Z,99.99
2022-09-24T02:52:34.317Z,99.99
2022-09-24T02:53:34.331Z,99.99
2022-09-24T02:54:34.354Z,99.99
2022-09-24T02:55:34.379Z,99.99
2022-09-24T02:56:34.404Z,99.99
2022-09-24T02:57:34.425Z,99.99
2022-09-24T02:58:34.453Z,99.99
2022-09-24T02:59:34.478Z,99.99
2022-09-24T03:00:34.499Z,99.99
2022-09-24T03:01:34.585Z,99.99
2022-09-24T03:02:34.703Z,99.99
2022-09-24T03:03:34.576Z,99.99
2022-09-24T03:04:34.614Z,99.99
2022-09-24T03:05:34.623Z,99.99
2022-09-24T03:06:34.648Z,99.99
2022-09-24T03:07:34.671Z,99.99
2022-09-24T03:08:34.695Z,99.99
2022-09-24T03:09:34.722Z,99.99
2022-09-24T03:10:34.749Z,99.99
2022-09-24T03:11:34.771Z,99.99
2022-09-24T03:12:34.793Z,99.99
2022-09-24T03:13:34.861Z,99.99
2022-09-24T03:14:34.848Z,99.99
2022-09-24T03:15:34.865Z,99.99
2022-09-24T03:16:34.984Z,99.99
2022-09-24T03:17:34.915Z,99.99
2022-09-24T03:18:34.938Z,99.99
2022-09-24T03:19:34.965Z,99.99
2022-09-24T03:20:34.988Z,99.99
2022-09-24T03:21:35.013Z,99.99
2022-09-24T03:22:35.039Z,99.99
2022-09-24T03:23:35.061Z,99.99
2022-09-24T03:24:35.086Z,99.99
2022-09-24T03:25:35.109Z,99.99
2022-09-24T03:26:35.134Z,99.99
2022-09-24T03:27:35.162Z,99.99
2022-09-24T03:28:35.189Z,99.99
2022-09-24T03:29:35.206Z,99.99
2022-09-24T03:30:35.230Z,99.99
2022-09-24T03:31:35.306Z,99.99
2022-09-24T03:32:35.278Z,99.99
2022-09-24T03:33:35.301Z,99.99
2022-09-24T03:34:35.328Z,99.99
2022-09-24T03:35:35.354Z,99.99
2022-09-24T03:36:35.377Z,99.99
2022-09-24T03:37:35.399Z,99.99
2022-09-24T03:38:35.424Z,99.99
2022-09-24T03:39:35.454Z,99.99
2022-09-24T03:40:35.587Z,99.99
2022-09-24T03:41:35.496Z,99.99
2022-09-24T03:42:35.522Z,99.99
2022-09-24T03:43:35.556Z,99.99
2022-09-24T03:44:35.569Z,99.99
2022-09-24T03:45:35.595Z,99.99
2022-09-24T03:46:35.690Z,99.99
2022-09-24T03:47:35.640Z,99.99
2022-09-24T03:48:35.667Z,99.99
2022-09-24T03:49:35.690Z,99.99
2022-09-24T03:50:35.717Z,99.99
2022-09-24T03:51:35.742Z,99.99
2022-09-24T03:52:35.761Z,99.99
2022-09-24T03:53:35.787Z,99.99
2022-09-24T03:54:35.813Z,99.99
2022-09-24T03:55:35.836Z,99.99
2022-09-24T03:56:35.858Z,99.99
2022-09-24T03:57:35.885Z,99.99
2022-09-24T03:58:35.910Z,99.99
2022-09-24T03:59:35.934Z,99.99
2022-09-24T04:00:40.337Z,99.99
2022-09-24T04:01:35.990Z,99.99
2022-09-24T04:02:36.089Z,99.99
2022-09-24T04:03:36.029Z,99.99
2022-09-24T04:04:36.053Z,99.99
2022-09-24T04:05:36.079Z,99.99
2022-09-24T04:06:36.100Z,99.99
2022-09-24T04:07:36.127Z,99.99
2022-09-24T04:08:36.151Z,99.99
2022-09-24T04:09:36.177Z,99.99
2022-09-24T04:10:36.204Z,99.99
2022-09-24T04:11:36.226Z,99.99
2022-09-24T04:12:36.252Z,99.99
2022-09-24T04:13:36.270Z,99.99
2022-09-24T04:14:36.297Z,99.99
2022-09-24T04:15:36.320Z,99.99
2022-09-24T04:16:36.392Z,99.99
2022-09-24T04:17:36.370Z,99.99
2022-09-24T04:18:39.227Z,99.99
2022-09-24T04:19:36.416Z,99.99
2022-09-24T04:20:36.444Z,99.99
2022-09-24T04:21:36.479Z,99.99
2022-09-24T04:22:36.490Z,99.99
2022-09-24T04:23:36.513Z,99.99
2022-09-24T04:24:36.537Z,99.99
2022-09-24T04:25:36.557Z,99.99
2022-09-24T04:26:36.588Z,99.99
2022-09-24T04:27:36.609Z,99.99
2022-09-24T04:28:36.634Z,99.99
2022-09-24T04:29:36.661Z,99.99
2022-09-24T04:30:36.683Z,99.99
2022-09-24T04:31:36.908Z,99.99
2022-09-24T04:32:36.727Z,99.99
2022-09-24T04:33:36.758Z,99.99
2022-09-24T04:34:36.777Z,99.99
2022-09-24T04:35:36.808Z,99.99
2022-09-24T04:36:36.830Z,99.99
2022-09-24T04:37:36.856Z,99.99
2022-09-24T04:38:36.877Z,99.99
2022-09-24T04:39:36.905Z,99.99
2022-09-24T04:40:36.961Z,99.99
2022-09-24T04:41:36.958Z,99.99
2022-09-24T04:42:36.973Z,99.99
2022-09-24T04:43:37.210Z,99.99
2022-09-24T04:44:37.022Z,99.99
2022-09-24T04:45:37.053Z,99.99
2022-09-24T04:46:37.143Z,99.99
2022-09-24T04:47:37.098Z,99.99
2022-09-24T04:48:37.118Z,99.99
2022-09-24T04:49:37.144Z,99.99
2022-09-24T04:50:37.687Z,99.99
2022-09-24T04:51:37.193Z,99.99
2022-09-24T04:52:37.214Z,99.99
2022-09-24T04:53:37.275Z,99.99
2022-09-24T04:54:37.260Z,99.99
2022-09-24T04:55:37.289Z,99.99
2022-09-24T04:56:37.327Z,99.99
2022-09-24T04:57:37.337Z,99.99
2022-09-24T04:58:37.369Z,99.99
2022-09-24T04:59:37.386Z,99.99
2022-09-24T05:00:37.413Z,99.99
2022-09-24T05:01:37.554Z,99.99
2022-09-24T05:02:37.569Z,99.99
2022-09-24T05:03:37.484Z,99.99
2022-09-24T05:04:37.506Z,99.99
2022-09-24T05:05:37.531Z,99.99
2022-09-24T05:06:37.553Z,99.99
2022-09-24T05:07:37.580Z,99.99
2022-09-24T05:08:37.602Z,99.99
2022-09-24T05:09:37.627Z,99.99
2022-09-24T05:10:37.655Z,99.99
2022-09-24T05:11:37.678Z,99.99
2022-09-24T05:12:37.698Z,99.99
2022-09-24T05:13:37.724Z,99.99
2022-09-24T05:14:37.749Z,99.99
2022-09-24T05:15:42.378Z,99.99
2022-09-24T05:16:37.884Z,99.99
2022-09-24T05:17:37.824Z,99.99
2022-09-24T05:18:37.845Z,99.99
2022-09-24T05:19:37.901Z,99.99
2022-09-24T05:20:37.897Z,99.99
2022-09-24T05:21:37.921Z,99.99
2022-09-24T05:22:37.943Z,99.99
2022-09-24T05:23:37.967Z,99.99
2022-09-24T05:24:37.994Z,99.99
2022-09-24T05:25:38.021Z,99.99
2022-09-24T05:26:38.045Z,99.99
2022-09-24T05:27:38.102Z,99.99
2022-09-24T05:28:38.090Z,99.99
2022-09-24T05:29:38.121Z,99.99
2022-09-24T05:30:38.169Z,99.99
2022-09-24T05:31:38.244Z,99.99
2022-09-24T05:32:38.184Z,99.99
2022-09-24T05:33:38.214Z,99.99
2022-09-24T05:34:38.236Z,99.99
2022-09-24T05:35:38.263Z,99.99
2022-09-24T05:36:38.282Z,99.99
2022-09-24T05:37:38.350Z,99.99
2022-09-24T05:38:41.572Z,99.99
2022-09-24T05:39:38.356Z,99.99
2022-09-24T05:40:38.462Z,99.99
2022-09-24T05:41:38.405Z,99.99
2022-09-24T05:42:38.429Z,99.99
2022-09-24T05:43:38.449Z,99.99
2022-09-24T05:44:38.473Z,99.99
2022-09-24T05:45:38.498Z,99.99
2022-09-24T05:46:38.540Z,99.99
2022-09-24T05:47:38.552Z,99.99
2022-09-24T05:48:38.572Z,99.99
2022-09-24T05:49:38.597Z,99.99
2022-09-24T05:50:38.619Z,99.99
2022-09-24T05:51:38.645Z,99.99
2022-09-24T05:52:38.670Z,99.99
2022-09-24T05:53:38.692Z,99.99
2022-09-24T05:54:38.720Z,99.99
2022-09-24T05:55:38.744Z,99.99
2022-09-24T05:56:38.768Z,99.99
2022-09-24T05:57:38.799Z,99.99
2022-09-24T05:58:38.816Z,99.99
2022-09-24T05:59:38.841Z,99.99
2022-09-24T06:00:38.861Z,99.99
2022-09-24T06:01:38.924Z,99.99
2022-09-24T06:02:39.017Z,99.99
2022-09-24T06:03:38.940Z,99.99
2022-09-24T06:04:38.960Z,99.99
2022-09-24T06:05:38.985Z,99.99
2022-09-24T06:06:39.023Z,99.99
2022-09-24T06:07:39.034Z,99.99
2022-09-24T06:08:39.055Z,99.99
2022-09-24T06:09:39.079Z,99.99
2022-09-24T06:10:39.104Z,99.99
2022-09-24T06:11:40.789Z,99.99
2022-09-24T06:12:39.153Z,99.99
2022-09-24T06:13:39.180Z,99.99
2022-09-24T06:14:39.199Z,99.99
2022-09-24T06:15:39.240Z,99.99
2022-09-24T06:16:39.306Z,99.99
2022-09-24T06:17:39.277Z,99.99
2022-09-24T06:18:39.297Z,99.99
2022-09-24T06:19:39.322Z,99.99
2022-09-24T06:20:39.344Z,99.99
2022-09-24T06:21:39.369Z,99.99
2022-09-24T06:22:39.395Z,99.99
2022-09-24T06:23:39.506Z,99.99
2022-09-24T06:24:39.441Z,99.99
2022-09-24T06:25:39.467Z,99.99
2022-09-24T06:26:39.492Z,99.99
2022-09-24T06:27:39.516Z,99.99
2022-09-24T06:28:39.540Z,99.99
2022-09-24T06:29:39.565Z,99.99
2022-09-24T06:30:39.589Z,99.99
2022-09-24T06:31:39.647Z,99.99
2022-09-24T06:32:39.638Z,99.99
2022-09-24T06:33:39.662Z,99.99
2022-09-24T06:34:39.687Z,99.99
2022-09-24T06:35:39.708Z,99.99
2022-09-24T06:36:39.732Z,99.99
2022-09-24T06:37:39.762Z,99.99
2022-09-24T06:38:39.779Z,99.99
2022-09-24T06:39:39.806Z,99.99
2022-09-24T06:40:39.902Z,99.99
2022-09-24T06:41:39.855Z,99.99
2022-09-24T06:42:39.881Z,99.99
2022-09-24T06:43:39.909Z,99.99
2022-09-24T06:44:39.929Z,99.99
2022-09-24T06:45:39.950Z,99.99
2022-09-24T06:46:39.994Z,99.99
2022-09-24T06:47:40.003Z,99.99
2022-09-24T06:48:40.033Z,99.99
2022-09-24T06:49:40.055Z,99.99
2022-09-24T06:50:40.069Z,99.99
2022-09-24T06:51:40.107Z,99.99
2022-09-24T06:52:40.121Z,99.99
2022-09-24T06:53:40.146Z,99.99
2022-09-24T06:54:40.170Z,99.99
2022-09-24T06:55:40.272Z,99.99
2022-09-24T06:56:40.217Z,99.99
2022-09-24T06:57:40.240Z,99.99
2022-09-24T06:58:40.266Z,99.99
2022-09-24T06:59:40.291Z,99.99
2022-09-24T07:00:40.343Z,99.99
2022-09-24T07:01:40.487Z,99.99
2022-09-24T07:02:40.481Z,99.99
2022-09-24T07:03:40.388Z,99.99
2022-09-24T07:04:40.409Z,99.99
2022-09-24T07:05:43.536Z,99.99
2022-09-24T07:06:40.464Z,99.99
2022-09-24T07:07:40.487Z,99.99
2022-09-24T07:08:40.528Z,99.99
2022-09-24T07:09:40.535Z,99.99
2022-09-24T07:10:40.579Z,99.99
2022-09-24T07:11:40.589Z,99.99
2022-09-24T07:12:40.606Z,99.99
2022-09-24T07:13:40.631Z,99.99
2022-09-24T07:14:40.658Z,99.99
2022-09-24T07:15:40.712Z,99.99
2022-09-24T07:18:12.899Z,99.99
2022-09-24T07:19:12.418Z,99.99
2022-09-24T07:21:16.442Z,99.99
2022-09-24T07:22:16.461Z,99.99
2022-09-24T07:24:21.458Z,99.99
2022-09-24T07:25:20.983Z,99.99
2022-09-24T07:26:21.015Z,99.99
2022-09-24T07:27:21.120Z,99.99
2022-09-24T07:28:21.060Z,99.99
2022-09-24T07:29:21.087Z,99.99
2022-09-24T07:30:21.109Z,99.99
2022-09-24T07:31:21.204Z,99.99
2022-09-24T07:32:24.003Z,99.99
2022-09-24T07:33:21.179Z,99.99
2022-09-24T07:34:21.219Z,99.99
2022-09-24T07:35:21.232Z,99.99
2022-09-24T07:36:21.259Z,99.99
2022-09-24T07:37:21.284Z,99.99
2022-09-24T07:38:21.325Z,99.99
2022-09-24T07:39:21.332Z,99.99
2022-09-24T07:40:21.437Z,99.99
2022-09-24T07:41:21.380Z,99.99
2022-09-24T07:42:21.408Z,99.99
2022-09-24T07:43:21.433Z,99.99
2022-09-24T07:44:21.461Z,99.99
2022-09-24T07:45:21.486Z,99.99
2022-09-24T07:46:21.527Z,99.99
2022-09-24T07:47:21.532Z,99.99
2022-09-24T07:48:21.555Z,99.99
2022-09-24T07:49:21.581Z,99.99
2022-09-24T07:50:21.607Z,99.99
2022-09-24T07:51:21.633Z,99.99
2022-09-24T07:52:21.661Z,99.99
2022-09-24T07:53:21.680Z,99.99
2022-09-24T07:54:21.707Z,99.99
2022-09-24T07:55:21.734Z,99.99
2022-09-24T07:56:21.764Z,99.99
2022-09-24T07:57:21.781Z,99.99
2022-09-24T07:58:21.809Z,99.99
2022-09-24T07:59:21.831Z,99.99
2022-09-24T08:00:21.871Z,99.99
2022-09-24T08:01:21.937Z,99.99
2022-09-24T08:02:21.907Z,99.99
2022-09-24T08:03:22.014Z,99.99
2022-09-24T08:04:22.012Z,99.99
2022-09-24T08:05:21.981Z,99.99
2022-09-24T08:06:22.009Z,99.99
2022-09-24T08:07:22.034Z,99.99
2022-09-24T08:08:22.056Z,99.99
2022-09-24T08:09:22.080Z,99.99
2022-09-24T08:10:22.163Z,99.99
2022-09-24T08:11:22.136Z,99.99
2022-09-24T08:12:22.163Z,99.99
2022-09-24T08:13:26.875Z,99.99
2022-09-24T08:14:22.212Z,99.99
2022-09-24T08:15:22.243Z,99.99
2022-09-24T08:16:22.310Z,99.99
2022-09-24T08:17:22.288Z,99.99
2022-09-24T08:18:22.313Z,99.99
2022-09-24T08:19:22.336Z,99.99
2022-09-24T08:20:22.373Z,99.99
2022-09-24T08:21:22.385Z,99.99
2022-09-24T08:22:22.414Z,99.99
2022-09-24T08:23:22.438Z,99.99
2022-09-24T08:24:22.486Z,99.99
2022-09-24T08:25:22.490Z,99.99
2022-09-24T08:26:22.512Z,99.99
2022-09-24T08:27:22.534Z,99.99
2022-09-24T08:28:22.576Z,99.99
2022-09-24T08:29:22.589Z,99.99
2022-09-24T08:30:22.618Z,99.99
2022-09-24T08:31:22.804Z,99.99
2022-09-24T08:32:22.669Z,99.99
2022-09-24T08:33:22.694Z,99.99
2022-09-24T08:34:22.722Z,99.99
2022-09-24T08:35:22.745Z,99.99
2022-09-24T08:36:22.770Z,99.99
2022-09-24T08:37:22.793Z,99.99
2022-09-24T08:38:22.820Z,99.99
2022-09-24T08:39:22.846Z,99.99
2022-09-24T08:40:22.997Z,99.99
2022-09-24T08:41:22.895Z,99.99
2022-09-24T08:42:22.923Z,99.99
2022-09-24T08:43:22.949Z,99.99
2022-09-24T08:44:22.974Z,99.99
2022-09-24T08:45:23.000Z,99.99
2022-09-24T08:46:23.111Z,99.99
2022-09-24T08:47:23.050Z,99.99
2022-09-24T08:48:23.072Z,99.99
2022-09-24T08:49:23.102Z,99.99
2022-09-24T08:50:23.130Z,99.99
2022-09-24T08:51:23.156Z,99.99
2022-09-24T08:52:23.180Z,99.99
2022-09-24T08:53:23.205Z,99.99
2022-09-24T08:54:23.226Z,99.99
2022-09-24T08:55:23.257Z,99.99
2022-09-24T08:56:23.301Z,99.99
2022-09-24T08:57:23.311Z,99.99
2022-09-24T08:58:23.332Z,99.99
2022-09-24T08:59:23.354Z,99.99
2022-09-24T09:00:23.384Z,99.99
2022-09-24T09:01:23.517Z,99.99
2022-09-24T09:02:23.557Z,99.99
2022-09-24T09:03:23.541Z,99.99
2022-09-24T09:04:23.488Z,99.99
2022-09-24T09:05:23.515Z,99.99
2022-09-24T09:06:23.537Z,99.99
2022-09-24T09:07:23.567Z,99.99
2022-09-24T09:08:47.089Z,99.99
2022-09-24T09:09:23.613Z,99.99
2022-09-24T09:10:23.647Z,99.99
2022-09-24T09:11:23.671Z,99.99
2022-09-24T09:12:23.695Z,99.99
2022-09-24T09:13:23.720Z,99.99
2022-09-24T09:14:23.745Z,99.99
2022-09-24T09:15:23.788Z,99.99
2022-09-24T09:16:23.826Z,99.99
2022-09-24T09:17:23.829Z,99.99
2022-09-24T09:18:23.849Z,99.99
2022-09-24T09:19:23.878Z,99.99
2022-09-24T09:20:23.903Z,99.99
2022-09-24T09:21:23.935Z,99.99
2022-09-24T09:22:23.958Z,99.99
2022-09-24T09:23:23.980Z,99.99
2022-09-24T09:24:24.008Z,99.99
2022-09-24T09:25:24.040Z,99.99
2022-09-24T09:26:24.064Z,99.99
2022-09-24T09:27:24.083Z,99.99
2022-09-24T09:28:24.114Z,99.99
2022-09-24T09:29:24.139Z,99.99
2022-09-24T09:30:24.163Z,99.99
2022-09-24T09:31:24.246Z,99.99
2022-09-24T09:32:24.220Z,99.99
2022-09-24T09:33:24.251Z,99.99
2022-09-24T09:34:24.271Z,99.99
2022-09-24T09:35:24.296Z,99.99
2022-09-24T09:36:24.324Z,99.99
2022-09-24T09:37:26.081Z,99.99
2022-09-24T09:38:24.378Z,99.99
2022-09-24T09:39:24.401Z,99.99
2022-09-24T09:40:29.146Z,99.99
2022-09-24T09:41:24.456Z,99.99
2022-09-24T09:42:24.484Z,99.99
2022-09-24T09:43:24.517Z,99.99
2022-09-24T09:44:24.543Z,99.99
2022-09-24T09:45:27.863Z,99.99
2022-09-24T09:46:24.638Z,99.99
2022-09-24T09:47:24.620Z,99.99
2022-09-24T09:48:24.649Z,99.99
2022-09-24T09:49:24.668Z,99.99
2022-09-24T09:50:24.700Z,99.99
2022-09-24T09:51:24.740Z,99.99
2022-09-24T09:52:24.758Z,99.99
2022-09-24T09:53:24.777Z,99.99
2022-09-24T09:54:24.808Z,99.99
2022-09-24T09:55:24.831Z,99.99
2022-09-24T09:56:24.856Z,99.99
2022-09-24T09:57:24.888Z,99.99
2022-09-24T09:58:24.921Z,99.99
2022-09-24T09:59:29.555Z,99.99
2022-09-24T10:00:24.973Z,99.99
2022-09-24T10:01:24.997Z,99.99
2022-09-24T10:02:25.224Z,99.99
2022-09-24T10:03:25.186Z,99.99
2022-09-24T10:04:25.081Z,99.99
2022-09-24T10:05:27.512Z,99.99
2022-09-24T10:06:25.136Z,99.99
2022-09-24T10:07:25.164Z,99.99
2022-09-24T10:08:25.187Z,99.99
2022-09-24T10:09:25.218Z,99.99
2022-09-24T10:10:25.239Z,99.99
2022-09-24T10:11:25.271Z,99.99
2022-09-24T10:12:25.296Z,99.99
2022-09-24T10:13:25.326Z,99.99
2022-09-24T10:14:25.352Z,99.99
2022-09-24T10:15:25.382Z,99.99
2022-09-24T10:16:25.442Z,99.99
2022-09-24T10:17:25.435Z,99.99
2022-09-24T10:18:25.464Z,99.99
2022-09-24T10:19:25.508Z,99.99
2022-09-24T10:20:25.528Z,99.99
2022-09-24T10:21:28.325Z,99.99
2022-09-24T10:22:25.577Z,99.99
2022-09-24T10:23:25.607Z,99.99
2022-09-24T10:24:25.635Z,99.99
2022-09-24T10:25:25.664Z,99.99
2022-09-24T10:26:25.689Z,99.99
2022-09-24T10:27:25.717Z,99.99
2022-09-24T10:28:25.746Z,99.99
2022-09-24T10:29:25.772Z,99.99
2022-09-24T10:30:25.806Z,99.99
2022-09-24T10:31:25.874Z,99.99
2022-09-24T10:32:25.857Z,99.99
2022-09-24T10:33:25.912Z,99.99
2022-09-24T10:34:25.923Z,99.99
2022-09-24T10:35:25.943Z,99.49
2022-09-24T10:36:25.979Z,99.78
2022-09-24T10:37:26.005Z,99.99
2022-09-24T10:38:26.024Z,97.96
2022-09-24T10:39:26.056Z,97.67
2022-09-24T10:40:26.270Z,99.49
2022-09-24T10:41:26.114Z,99.49
2022-09-24T10:42:26.141Z,98.05
2022-09-24T10:43:26.176Z,99.01
2022-09-24T10:44:26.195Z,99.49
2022-09-24T10:45:26.227Z,99.83
2022-09-24T10:46:26.291Z,99.99
2022-09-24T10:47:26.305Z,99.99
2022-09-24T10:48:26.307Z,99.99
2022-09-24T10:49:26.338Z,99.99
2022-09-24T10:50:26.364Z,99.99
2022-09-24T10:51:29.168Z,99.99
2022-09-24T10:52:26.430Z,99.99
2022-09-24T10:53:26.453Z,99.99
2022-09-24T10:54:26.479Z,99.99
2022-09-24T10:55:26.523Z,98.82
2022-09-24T10:56:26.534Z,97.91
2022-09-24T10:57:26.620Z,98.91
2022-09-24T10:58:26.596Z,97.86
2022-09-24T10:59:26.626Z,93.58
2022-09-24T11:00:26.652Z,94.54
2022-09-24T11:01:26.757Z,93.96
2022-09-24T11:02:26.786Z,93.53
2022-09-24T11:03:26.734Z,92.72
2022-09-24T11:04:26.772Z,91.52
2022-09-24T11:05:26.800Z,91.28
2022-09-24T11:06:26.817Z,91.66
2022-09-24T11:07:26.847Z,90.94
2022-09-24T11:08:26.879Z,92.86
2022-09-24T11:09:26.914Z,92.86
2022-09-24T11:10:26.949Z,91.90
2022-09-24T11:11:26.969Z,91.80
2022-09-24T11:12:26.989Z,91.99
2022-09-24T11:13:27.027Z,91.32
2022-09-24T11:14:27.052Z,91.32
2022-09-24T11:15:27.075Z,91.71
2022-09-24T11:16:27.197Z,88.63
2022-09-24T11:17:27.135Z,88.53
2022-09-24T11:18:27.165Z,89.50
2022-09-24T11:19:27.195Z,88.53
2022-09-24T11:20:27.222Z,87.48
2022-09-24T11:21:27.249Z,88.82
2022-09-24T11:22:27.285Z,89.69
2022-09-24T11:23:27.314Z,89.69
2022-09-24T11:24:27.351Z,88.44
2022-09-24T11:25:27.362Z,88.63
2022-09-24T11:26:27.398Z,89.78
2022-09-24T11:27:27.518Z,90.36
2022-09-24T11:28:27.452Z,91.17
2022-09-24T11:29:27.486Z,91.08
2022-09-24T11:30:27.512Z,90.69
2022-09-24T11:31:27.586Z,90.02
2022-09-24T11:32:27.569Z,89.29
2022-09-24T11:33:27.599Z,87.76
2022-09-24T11:34:27.630Z,88.04
2022-09-24T11:35:27.672Z,87.95
2022-09-24T11:36:27.687Z,87.62
2022-09-24T11:37:27.716Z,88.62
2022-09-24T11:38:27.744Z,90.45
2022-09-24T11:39:27.792Z,89.87
2022-09-24T11:40:27.893Z,89.10
2022-09-24T11:41:27.830Z,88.57
2022-09-24T11:42:27.858Z,86.94
2022-09-24T11:43:27.983Z,87.52
2022-09-24T11:44:27.920Z,87.90
2022-09-24T11:45:27.963Z,87.81
2022-09-24T11:46:28.068Z,88.57
2022-09-24T11:47:28.007Z,88.67
2022-09-24T11:48:28.035Z,89.35
2022-09-24T11:49:28.085Z,90.59
2022-09-24T11:50:28.094Z,90.79
2022-09-24T11:51:28.122Z,91.56
2022-09-24T11:52:28.152Z,91.36
2022-09-24T11:53:28.178Z,89.64
2022-09-24T11:54:28.230Z,88.91
2022-09-24T11:55:28.312Z,87.66
2022-09-24T11:56:28.264Z,86.22
2022-09-24T11:57:28.297Z,86.31
2022-09-24T11:58:28.327Z,86.31
2022-09-24T11:59:28.353Z,86.79
2022-09-24T12:00:28.387Z,86.41
2022-09-24T12:01:28.495Z,85.64
2022-09-24T12:02:28.484Z,85.54
2022-09-24T12:03:28.538Z,86.31
2022-09-24T12:04:28.501Z,83.52
2022-09-24T12:05:28.526Z,83.67
2022-09-24T12:06:28.566Z,85.02
2022-09-24T12:07:28.588Z,82.90
2022-09-24T12:08:28.637Z,84.63
2022-09-24T12:09:28.642Z,83.67
2022-09-24T12:10:28.674Z,83.58
2022-09-24T12:11:28.704Z,83.29
2022-09-24T12:12:28.737Z,80.69
2022-09-24T12:13:28.761Z,79.92
2022-09-24T12:14:28.806Z,79.60
2022-09-24T12:15:28.818Z,79.88
2022-09-24T12:16:28.897Z,80.55
2022-09-24T12:17:28.878Z,81.04
2022-09-24T12:18:28.906Z,81.90
2022-09-24T12:19:28.947Z,81.75
2022-09-24T12:20:28.965Z,80.94
2022-09-24T12:21:28.991Z,81.13
2022-09-24T12:22:29.022Z,81.04
2022-09-24T12:23:29.052Z,80.65
2022-09-24T12:24:29.086Z,80.84
2022-09-24T12:25:29.106Z,81.32
2022-09-24T12:26:29.133Z,80.84
2022-09-24T12:27:29.160Z,81.46
2022-09-24T12:28:29.195Z,80.88
2022-09-24T12:29:29.238Z,80.94
2022-09-24T12:30:29.252Z,80.98
2022-09-24T12:31:29.364Z,81.99
2022-09-24T12:32:29.308Z,81.81
2022-09-24T12:33:29.339Z,82.14
2022-09-24T12:34:29.366Z,82.32
2022-09-24T12:35:29.394Z,82.81
2022-09-24T12:36:29.422Z,80.30
2022-09-24T12:37:29.455Z,80.69
2022-09-24T12:38:29.503Z,82.71
2022-09-24T12:39:29.513Z,83.19
2022-09-24T12:40:29.616Z,83.96
2022-09-24T12:41:29.574Z,81.84
2022-09-24T12:42:29.603Z,80.98
2022-09-24T12:43:29.624Z,79.79
2022-09-24T12:44:29.661Z,80.46
2022-09-24T12:45:29.709Z,79.79
2022-09-24T12:46:29.738Z,79.30
2022-09-24T12:47:29.740Z,80.04
2022-09-24T12:48:29.781Z,80.32
2022-09-24T12:49:29.800Z,80.80
2022-09-24T12:50:29.839Z,81.38
2022-09-24T12:51:29.857Z,81.48
2022-09-24T12:52:29.887Z,81.82
2022-09-24T12:53:29.908Z,81.72
2022-09-24T12:54:29.945Z,82.49
2022-09-24T12:55:29.969Z,82.87
2022-09-24T12:56:30.031Z,83.45
2022-09-24T12:57:30.026Z,84.41
2022-09-24T12:58:30.079Z,84.80
2022-09-24T12:59:30.078Z,84.70
2022-09-24T13:00:30.106Z,84.95
2022-09-24T13:01:30.347Z,86.19
2022-09-24T13:02:30.264Z,87.39
2022-09-24T13:03:30.194Z,87.01
2022-09-24T13:04:30.220Z,85.57
2022-09-24T13:05:30.247Z,87.49
2022-09-24T13:06:30.289Z,87.87
2022-09-24T13:07:30.303Z,87.96
2022-09-24T13:08:30.331Z,88.87
2022-09-24T13:09:30.359Z,89.07
2022-09-24T13:10:30.384Z,87.72
2022-09-24T13:11:30.412Z,85.99
2022-09-24T13:12:30.441Z,86.43